createdAt,value
2018-04-19T00:02:05.141Z,102710.92
2018-04-19T00:05:10.761Z,102711.91
2018-04-19T00:08:16.717Z,102706.36
2018-04-19T00:11:22.537Z,102706.03
2018-04-19T00:14:27.483Z,102708.72
2018-04-19T00:17:32.677Z,102709.91
2018-04-19T00:20:37.896Z,102707.77
2018-04-19T00:23:43.118Z,102702.61
2018-04-19T00:26:49.027Z,102707.80
2018-04-19T00:29:55.914Z,102702.67
2018-04-19T00:33:02.158Z,102699.67
2018-04-19T00:36:08.161Z,102704.00
2018-04-19T00:39:15.022Z,102697.56
2018-04-19T00:42:21.145Z,102693.30
2018-04-19T00:45:28.264Z,102684.77
2018-04-19T00:48:35.257Z,102688.20
2018-04-19T00:51:41.109Z,102697.60
2018-04-19T00:54:46.961Z,102699.10
2018-04-19T00:57:53.100Z,102691.05
2018-04-19T01:00:59.050Z,102689.84
2018-04-19T01:04:04.266Z,102690.74
2018-04-19T01:07:09.474Z,102680.23
2018-04-19T01:10:15.778Z,102682.02
2018-04-19T01:13:21.926Z,102679.58
2018-04-19T01:16:27.522Z,102678.44
2018-04-19T01:19:33.141Z,102685.83
2018-04-19T01:22:38.625Z,102670.44
2018-04-19T01:25:44.529Z,102668.33
2018-04-19T01:28:51.580Z,102671.85
2018-04-19T01:31:57.396Z,102669.76
2018-04-19T01:35:03.153Z,102673.69
2018-04-19T01:38:08.101Z,102663.41
2018-04-19T01:41:13.538Z,102666.55
2018-04-19T01:44:18.759Z,102659.34
2018-04-19T01:47:23.965Z,102661.48
2018-04-19T01:50:30.093Z,102663.33
2018-04-19T01:53:36.210Z,102665.51
2018-04-19T01:56:42.229Z,102659.11
2018-04-19T01:59:47.478Z,102672.42
2018-04-19T02:02:52.689Z,102666.98
2018-04-19T02:05:59.227Z,102666.62
2018-04-19T02:09:04.275Z,102668.44
2018-04-19T02:12:10.705Z,102663.31
2018-04-19T02:15:23.089Z,102660.02
2018-04-19T02:18:28.289Z,102663.02
2018-04-19T02:21:33.497Z,102663.09
2018-04-19T02:24:38.717Z,102663.20
2018-04-19T02:27:44.358Z,102655.55
2018-04-19T02:30:49.569Z,102657.26
2018-04-19T02:33:57.433Z,102659.88
2018-04-19T02:37:02.650Z,102656.53
2018-04-19T02:40:07.859Z,102654.89
2018-04-19T02:43:13.014Z,102653.66
2018-04-19T02:46:17.958Z,102651.52
2018-04-19T02:49:23.194Z,102651.16
2018-04-19T02:52:29.226Z,102650.75
2018-04-19T02:55:35.368Z,102648.67
2018-04-19T02:58:41.277Z,102647.92
2018-04-19T03:01:47.411Z,102651.01
2018-04-19T03:04:53.529Z,102656.64
2018-04-19T03:07:58.745Z,102642.11
2018-04-19T03:11:03.962Z,102639.14
2018-04-19T03:14:10.979Z,102637.52
2018-04-19T03:17:17.098Z,102635.81
2018-04-19T03:20:23.915Z,102635.88
2018-04-19T03:23:29.314Z,102623.08
2018-04-19T03:26:34.532Z,102628.66
2018-04-19T03:29:40.391Z,102627.49
2018-04-19T03:32:46.524Z,102621.05
2018-04-19T03:35:53.541Z,102620.20
2018-04-19T03:38:59.373Z,102624.91
2018-04-19T03:42:04.573Z,102619.39
2018-04-19T03:45:10.193Z,102623.76
2018-04-19T03:48:16.148Z,102625.03
2018-04-19T03:51:21.961Z,102626.80
2018-04-19T03:54:27.166Z,102637.55
2018-04-19T03:57:34.312Z,102638.83
2018-04-19T04:00:41.053Z,102634.19
2018-04-19T04:03:47.236Z,102641.05
2018-04-19T04:06:54.273Z,102635.09
2018-04-19T04:10:00.381Z,102637.69
2018-04-19T04:13:06.309Z,102635.14
2018-04-19T04:16:22.614Z,102635.23
2018-04-19T04:19:38.687Z,102631.78
2018-04-19T04:22:54.577Z,102632.28
2018-04-19T04:26:00.462Z,102628.38
2018-04-19T04:29:06.556Z,102630.53
2018-04-19T04:32:12.817Z,102625.93
2018-04-19T04:35:18.839Z,102628.93
2018-04-19T04:38:25.139Z,102631.87
2018-04-19T04:41:31.441Z,102627.66
2018-04-19T04:44:37.065Z,102629.79
2018-04-19T04:47:42.284Z,102630.64
2018-04-19T04:50:48.105Z,102636.21
2018-04-19T04:53:54.270Z,102637.06
2018-04-19T04:57:00.208Z,102641.31
2018-04-19T05:00:06.546Z,102638.28
2018-04-19T05:03:12.209Z,102631.45
2018-04-19T05:06:17.186Z,102633.87
2018-04-19T05:09:22.591Z,102636.36
2018-04-19T05:12:28.779Z,102638.03
2018-04-19T05:15:34.684Z,102634.58
2018-04-19T05:18:40.805Z,102637.55
2018-04-19T05:21:47.761Z,102629.38
2018-04-19T05:24:54.930Z,102635.34
2018-04-19T05:28:00.757Z,102637.88
2018-04-19T05:31:07.585Z,102642.08
2018-04-19T05:34:14.667Z,102641.19
2018-04-19T05:37:21.669Z,102643.30
2018-04-19T05:40:27.798Z,102643.66
2018-04-19T05:43:33.906Z,102637.63
2018-04-19T05:46:40.029Z,102646.58
2018-04-19T05:49:46.845Z,102644.38
2018-04-19T05:52:52.973Z,102648.59
2018-04-19T05:55:59.855Z,102640.83
2018-04-19T05:59:05.233Z,102641.20
2018-04-19T06:02:10.470Z,102638.97
2018-04-19T06:05:15.468Z,102644.46
2018-04-19T06:08:21.589Z,102641.39
2018-04-19T06:11:27.229Z,102635.69
2018-04-19T06:14:32.849Z,102640.28
2018-04-19T06:17:38.078Z,102641.02
2018-04-19T06:20:43.205Z,102642.97
2018-04-19T06:23:50.084Z,102646.24
2018-04-19T06:26:55.925Z,102641.79
2018-04-19T06:30:01.840Z,102638.64
2018-04-19T06:33:07.053Z,102643.18
2018-04-19T06:36:12.275Z,102645.98
2018-04-19T06:39:17.688Z,102649.20
2018-04-19T06:42:22.909Z,102646.45
2018-04-19T06:45:28.109Z,102656.09
2018-04-19T06:48:33.037Z,102650.74
2018-04-19T06:51:38.252Z,102656.95
2018-04-19T06:54:44.408Z,102660.21
2018-04-19T06:57:50.509Z,102662.99
2018-04-19T07:00:57.629Z,102665.33
2018-04-19T07:04:03.002Z,102668.13
2018-04-19T07:07:09.313Z,102669.59
2018-04-19T07:10:15.168Z,102667.63
2018-04-19T07:13:20.385Z,102671.70
2018-04-19T07:16:26.430Z,102668.47
2018-04-19T07:19:32.502Z,102665.25
2018-04-19T07:22:38.193Z,102661.58
2018-04-19T07:25:45.252Z,102659.63
2018-04-19T07:28:52.203Z,102658.94
2018-04-19T07:31:58.973Z,102661.69
2018-04-19T07:35:06.108Z,102659.73
2018-04-19T07:38:12.866Z,102659.48
2018-04-19T07:41:19.009Z,102666.12
2018-04-19T07:44:26.049Z,102663.30
2018-04-19T07:47:32.801Z,102662.16
2018-04-19T07:50:38.212Z,102661.91
2018-04-19T07:53:43.438Z,102663.35
2018-04-19T07:56:49.565Z,102662.22
2018-04-19T07:59:55.505Z,102666.64
2018-04-19T08:03:01.535Z,102663.76
2018-04-19T08:06:06.770Z,102660.45
2018-04-19T08:09:11.993Z,102665.34
2018-04-19T08:12:16.950Z,102666.26
2018-04-19T08:15:22.169Z,102665.08
2018-04-19T08:18:29.227Z,102662.59
2018-04-19T08:21:35.997Z,102662.24
2018-04-19T08:24:41.861Z,102664.50
2018-04-19T08:27:48.732Z,102662.79
2018-04-19T08:30:54.580Z,102660.25
2018-04-19T08:34:00.513Z,102662.41
2018-04-19T08:37:06.617Z,102656.41
2018-04-19T08:40:12.747Z,102656.84
2018-04-19T08:43:19.385Z,102662.02
2018-04-19T08:46:25.229Z,102655.06
2018-04-19T08:49:30.453Z,102654.20
2018-04-19T08:52:35.752Z,102659.34
2018-04-19T08:55:40.976Z,102657.50
2018-04-19T08:58:47.135Z,102659.55
2018-04-19T09:01:52.350Z,102650.80
2018-04-19T09:04:57.569Z,102654.12
2018-04-19T09:08:02.796Z,102647.97
2018-04-19T09:11:08.023Z,102651.31
2018-04-19T09:14:14.146Z,102650.20
2018-04-19T09:17:20.762Z,102650.47
2018-04-19T09:20:26.954Z,102650.85
2018-04-19T09:23:32.161Z,102650.69
2018-04-19T09:26:37.383Z,102649.27
2018-04-19T09:29:42.786Z,102655.29
2018-04-19T09:32:47.999Z,102657.81
2018-04-19T09:35:53.221Z,102659.54
2018-04-19T09:39:00.285Z,102656.44
2018-04-19T09:42:06.167Z,102660.17
2018-04-19T09:45:11.398Z,102662.61
2018-04-19T09:48:16.697Z,102662.47
2018-04-19T09:51:24.074Z,102658.84
2018-04-19T09:54:29.799Z,102657.78
2018-04-19T09:57:36.584Z,102651.66
2018-04-19T10:00:45.414Z,102656.25
2018-04-19T10:03:51.355Z,102654.48
2018-04-19T10:06:56.593Z,102649.78
2018-04-19T10:10:02.213Z,102642.08
2018-04-19T10:13:07.230Z,102637.20
2018-04-19T10:16:12.462Z,102634.97
2018-04-19T10:19:17.160Z,102632.09
2018-04-19T10:22:22.382Z,102632.05
2018-04-19T10:25:27.586Z,102628.39
2018-04-19T10:28:33.331Z,102629.92
2018-04-19T10:31:39.457Z,102629.38
2018-04-19T10:34:45.582Z,102613.95
2018-04-19T10:37:51.212Z,102619.36
2018-04-19T10:40:56.417Z,102619.50
2018-04-19T10:44:02.585Z,102619.19
2018-04-19T10:47:08.231Z,102611.85
2018-04-19T10:50:14.556Z,102610.30
2018-04-19T10:53:21.494Z,102603.75
2018-04-19T10:56:27.638Z,102604.16
2018-04-19T10:59:33.882Z,102600.50
2018-04-19T11:02:39.145Z,102600.03
2018-04-19T11:05:45.254Z,102597.80
2018-04-19T11:08:50.466Z,102596.39
2018-04-19T11:11:56.625Z,102596.39
2018-04-19T11:15:01.992Z,102590.77
2018-04-19T11:18:07.737Z,102588.02
2018-04-19T11:21:12.958Z,102585.88
2018-04-19T11:24:18.177Z,102575.27
2018-04-19T11:27:24.317Z,102575.17
2018-04-19T11:30:30.462Z,102572.10
2018-04-19T11:33:35.450Z,102571.55
2018-04-19T11:36:40.699Z,102568.37
2018-04-19T11:39:47.008Z,102563.26
2018-04-19T11:42:53.140Z,102563.07
2018-04-19T11:45:58.352Z,102559.38
2018-04-19T11:49:04.974Z,102563.95
2018-04-19T11:52:10.801Z,102562.97
2018-04-19T11:55:17.654Z,102561.33
2018-04-19T11:58:23.780Z,102554.95
2018-04-19T12:01:30.071Z,102551.41
2018-04-19T12:04:36.005Z,102555.54
2018-04-19T12:07:43.054Z,102553.34
2018-04-19T12:10:50.107Z,102548.72
2018-04-19T12:13:56.153Z,102552.25
2018-04-19T12:17:02.288Z,102554.00
2018-04-19T12:20:07.266Z,102549.01
2018-04-19T12:23:12.252Z,102547.72
2018-04-19T12:26:18.206Z,102547.83
2018-04-19T12:29:24.706Z,102547.90
2018-04-19T12:32:30.600Z,102534.28
2018-04-19T12:35:36.732Z,102535.84
2018-04-19T12:38:42.857Z,102534.00
2018-04-19T12:41:49.903Z,102538.81
2018-04-19T12:44:56.953Z,102528.37
2018-04-19T12:48:03.100Z,102534.08
2018-04-19T12:51:09.054Z,102530.53
2018-04-19T12:54:14.257Z,102525.83
2018-04-19T12:57:20.178Z,102520.25
2018-04-19T13:00:26.293Z,102520.77
2018-04-19T13:03:33.113Z,102517.23
2018-04-19T13:06:40.262Z,102513.62
2018-04-19T13:09:46.390Z,102510.58
2018-04-19T13:12:52.514Z,102515.00
2018-04-19T13:15:59.547Z,102514.06
2018-04-19T13:19:06.584Z,102509.30
2018-04-19T13:22:12.438Z,102506.34
2018-04-19T13:25:18.588Z,102505.92
2018-04-19T13:28:25.420Z,102505.20
2018-04-19T13:31:31.573Z,102488.55
2018-04-19T13:34:36.761Z,102491.37
2018-04-19T13:37:42.485Z,102489.69
2018-04-19T13:40:48.613Z,102489.25
2018-04-19T13:43:55.153Z,102483.20
2018-04-19T13:47:01.275Z,102479.06
2018-04-19T13:50:08.373Z,102479.16
2018-04-19T13:53:15.476Z,102481.61
2018-04-19T13:56:21.610Z,102474.89
2018-04-19T13:59:26.822Z,102469.75
2018-04-19T14:02:32.039Z,102465.78
2018-04-19T14:05:37.004Z,102461.53
2018-04-19T14:08:42.230Z,102461.69
2018-04-19T14:11:47.444Z,102453.31
2018-04-19T14:14:52.685Z,102452.14
2018-04-19T14:17:59.760Z,102446.08
2018-04-19T14:21:06.734Z,102446.75
2018-04-19T14:24:12.894Z,102441.30
2018-04-19T14:27:19.081Z,102445.39
2018-04-19T14:30:25.020Z,102445.17
2018-04-19T14:33:31.058Z,102443.52
2018-04-19T14:36:36.266Z,102444.22
2018-04-19T14:39:41.485Z,102434.44
2018-04-19T14:42:46.695Z,102426.05
2018-04-19T14:45:51.573Z,102429.31
2018-04-19T14:48:57.296Z,102436.18
2018-04-19T14:52:03.416Z,102433.98
2018-04-19T14:55:09.582Z,102437.13
2018-04-19T14:58:15.688Z,102431.88
2018-04-19T15:01:22.774Z,102427.89
2018-04-19T15:04:29.825Z,102427.42
2018-04-19T15:07:35.370Z,102429.98
2018-04-19T15:10:42.328Z,102420.23
2018-04-19T15:13:48.228Z,102422.67
2018-04-19T15:16:53.437Z,102412.06
2018-04-19T15:19:58.663Z,102417.95
2018-04-19T15:23:05.906Z,102413.73
2018-04-19T15:26:12.988Z,102411.58
2018-04-19T15:29:19.793Z,102413.00
2018-04-19T15:32:24.731Z,102409.75
2018-04-19T15:35:29.946Z,102413.44
2018-04-19T15:38:35.163Z,102409.20
2018-04-19T15:41:41.311Z,102400.52
2018-04-19T15:44:47.694Z,102400.88
2018-04-19T15:47:53.564Z,102398.98
2018-04-19T15:50:59.886Z,102394.03
2018-04-19T15:54:06.213Z,102397.48
2018-04-19T15:57:13.042Z,102388.85
2018-04-19T16:00:19.209Z,102395.23
2018-04-19T16:03:26.258Z,102387.02
2018-04-19T16:06:33.320Z,102383.67
2018-04-19T16:09:39.450Z,102385.27
2018-04-19T16:12:45.581Z,102385.58
2018-04-19T16:15:50.789Z,102378.48
2018-04-19T16:18:56.010Z,102377.05
2018-04-19T16:22:01.345Z,102377.59
2018-04-19T16:25:07.457Z,102372.59
2018-04-19T16:28:12.727Z,102369.03
2018-04-19T16:31:18.830Z,102369.42
2018-04-19T16:34:24.967Z,102359.20
2018-04-19T16:37:30.375Z,102356.63
2018-04-19T16:40:36.721Z,102357.16
2018-04-19T16:43:42.858Z,102354.84
2018-04-19T16:46:48.469Z,102357.22
2018-04-19T16:49:54.394Z,102356.30
2018-04-19T16:53:00.450Z,102352.28
2018-04-19T16:56:06.569Z,102346.22
2018-04-19T16:59:13.618Z,102343.94
2018-04-19T17:02:19.211Z,102340.89
2018-04-19T17:05:24.428Z,102343.02
2018-04-19T17:08:29.404Z,102344.17
2018-04-19T17:11:34.634Z,102339.10
2018-04-19T17:14:39.842Z,102340.77
2018-04-19T17:17:45.223Z,102339.73
2018-04-19T17:20:50.159Z,102333.05
2018-04-19T17:23:56.042Z,102333.87
2018-04-19T17:27:01.257Z,102332.53
2018-04-19T17:30:06.489Z,102335.07
2018-04-19T17:33:12.642Z,102329.45
2018-04-19T17:36:18.770Z,102329.86
2018-04-19T17:39:24.607Z,102326.39
2018-04-19T17:42:30.791Z,102321.23
2018-04-19T17:45:36.893Z,102321.73
2018-04-19T17:48:42.814Z,102319.61
2018-04-19T17:51:48.938Z,102317.00
2018-04-19T17:54:55.108Z,102313.11
2018-04-19T17:58:00.322Z,102311.77
2018-04-19T18:01:06.567Z,102314.84
2018-04-19T18:04:12.413Z,102311.00
2018-04-19T18:07:18.033Z,102317.17
2018-04-19T18:10:23.247Z,102316.41
2018-04-19T18:13:28.459Z,102316.94
2018-04-19T18:16:34.597Z,102307.07
2018-04-19T18:19:41.656Z,102313.13
2018-04-19T18:22:47.810Z,102315.83
2018-04-19T18:25:54.858Z,102311.59
2018-04-19T18:29:00.970Z,102314.20
2018-04-19T18:32:06.849Z,102315.17
2018-04-19T18:35:12.689Z,102319.27
2018-04-19T18:38:18.885Z,102311.20
2018-04-19T18:41:25.937Z,102319.95
2018-04-19T18:44:32.101Z,102321.86
2018-04-19T18:47:39.003Z,102326.35
2018-04-19T18:50:46.021Z,102321.73
2018-04-19T18:53:52.185Z,102324.45
2018-04-19T18:56:58.312Z,102324.14
2018-04-19T19:00:03.762Z,102327.77
2018-04-19T19:03:09.915Z,102328.28
2018-04-19T19:06:16.084Z,102326.62
2018-04-19T19:09:21.992Z,102326.76
2018-04-19T19:12:28.117Z,102332.44
2018-04-19T19:19:50.718Z,102334.87
2018-04-19T19:22:56.548Z,102333.23
2018-04-19T19:26:02.685Z,102333.34
2018-04-19T19:29:08.313Z,102333.42
2018-04-19T19:32:14.219Z,102336.50
2018-04-19T19:35:19.337Z,102336.02
2018-04-19T19:38:25.232Z,102331.70
2018-04-19T19:41:30.625Z,102333.86
2018-04-19T19:44:37.507Z,102327.71
2018-04-19T19:47:43.105Z,102325.89
2018-04-19T19:50:49.228Z,102325.77
2018-04-19T19:53:54.882Z,102320.87
2018-04-19T19:57:01.045Z,102321.16
2018-04-19T20:00:07.885Z,102322.72
2018-04-19T20:03:14.942Z,102320.98
2018-04-19T20:06:21.161Z,102325.64
2018-04-19T20:09:26.382Z,102316.97
2018-04-19T20:12:31.562Z,102321.19
2018-04-19T20:15:38.628Z,102318.08
2018-04-19T20:18:44.241Z,102313.70
2018-04-19T20:21:50.156Z,102320.09
2018-04-19T20:24:57.200Z,102313.05
2018-04-19T20:28:03.469Z,102310.39
2018-04-19T20:31:08.657Z,102304.23
2018-04-19T20:34:14.781Z,102314.89
2018-04-19T20:37:21.785Z,102310.47
2018-04-19T20:40:27.921Z,102305.59
2018-04-19T20:43:33.849Z,102304.66
2018-04-19T20:46:39.778Z,102298.52
2018-04-19T20:49:45.981Z,102293.14
2018-04-19T20:52:52.032Z,102294.70
2018-04-19T20:55:57.984Z,102293.26
2018-04-19T20:59:03.192Z,102296.56
2018-04-19T21:02:08.347Z,102283.49
2018-04-19T21:05:13.722Z,102292.89
2018-04-19T21:08:19.831Z,102291.41
2018-04-19T21:11:25.442Z,102283.47
2018-04-19T21:14:31.670Z,102282.96
2018-04-19T21:17:37.290Z,102279.80
2018-04-19T21:20:43.413Z,102281.80
2018-04-19T21:23:49.350Z,102272.50
2018-04-19T21:26:55.460Z,102276.17
2018-04-19T21:30:01.690Z,102271.25
2018-04-19T21:33:07.513Z,102266.36
2018-04-19T21:36:14.447Z,102264.44
2018-04-19T21:39:20.346Z,102257.83
2018-04-19T21:42:27.502Z,102263.67
2018-04-19T21:45:33.338Z,102255.73
2018-04-19T21:48:39.450Z,102254.69
2018-04-19T21:51:46.008Z,102255.31
2018-04-19T21:54:52.133Z,102245.69
2018-04-19T21:57:58.884Z,102246.39
2018-04-19T22:01:05.015Z,102238.80
2018-04-19T22:04:09.949Z,102231.66
2018-04-19T22:07:17.098Z,102231.06
2018-04-19T22:10:22.918Z,102226.55
2018-04-19T22:13:29.030Z,102225.97
2018-04-19T22:16:36.060Z,102219.71
2018-04-19T22:19:41.951Z,102216.16
2018-04-19T22:22:47.158Z,102211.20
2018-04-19T22:25:52.381Z,102205.00
2018-04-19T22:28:57.593Z,102197.70
2018-04-19T22:32:03.260Z,102197.73
2018-04-19T22:35:08.469Z,102194.34
2018-04-19T22:38:15.105Z,102193.14
2018-04-19T22:41:21.234Z,102195.31
2018-04-19T22:44:27.202Z,102190.17
2018-04-19T22:47:33.341Z,102185.94
2018-04-19T22:50:39.037Z,102186.88
2018-04-19T22:53:45.787Z,102186.91
2018-04-19T22:56:51.686Z,102182.66
2018-04-19T22:59:56.623Z,102184.43
2018-04-19T23:03:01.560Z,102175.00
2018-04-19T23:06:07.401Z,102174.64
2018-04-19T23:09:13.541Z,102170.83
2018-04-19T23:12:19.658Z,102166.18
2018-04-19T23:15:25.305Z,102163.17
2018-04-19T23:18:30.293Z,102163.25
2018-04-19T23:21:35.501Z,102163.28
2018-04-19T23:24:41.747Z,102165.89
2018-04-19T23:27:47.776Z,102161.63
2018-04-19T23:30:54.925Z,102161.24
2018-04-19T23:34:00.746Z,102160.86
2018-04-19T23:37:05.994Z,102160.92
2018-04-19T23:40:11.627Z,102154.11
2018-04-19T23:43:17.487Z,102156.27
2018-04-19T23:46:23.752Z,102149.42
2018-04-19T23:49:29.641Z,102148.17
2018-04-19T23:52:36.708Z,102151.63
2018-04-19T23:55:43.023Z,102145.16
2018-04-19T23:58:48.229Z,102140.03
